TimeMDT,TemperatureF,Dew PointF,Humidity,Sea Level PressureIn,VisibilityMPH,Wind Direction,Wind SpeedMPH,Gust SpeedMPH,PrecipitationIn,Events,Conditions,WindDirDegrees,DateUTC
12:53 AM,55.9,45.0,67,29.75,10.0,NW,4.6,-,N/A,,Overcast,310,2013-05-16 06:53:00
1:53 AM,57.9,43.0,58,29.73,10.0,NW,11.5,-,N/A,,Overcast,310,2013-05-16 07:53:00
2:53 AM,55.0,45.0,69,29.75,10.0,Calm,Calm,-,0.00,,Scattered Clouds,0,2013-05-16 08:53:00
3:53 AM,52.0,44.1,74,29.75,10.0,SSW,3.5,-,N/A,,Clear,210,2013-05-16 09:53:00
4:53 AM,54.0,44.1,69,29.70,10.0,SSW,5.8,-,N/A,,Scattered Clouds,200,2013-05-16 10:53:00
5:53 AM,50.0,42.1,74,29.73,10.0,West,5.8,-,N/A,,Clear,260,2013-05-16 11:53:00
6:53 AM,54.0,45.0,72,29.75,10.0,NW,9.2,-,N/A,,Clear,320,2013-05-16 12:53:00
7:53 AM,59.0,43.0,55,29.75,10.0,NW,10.4,-,N/A,,Clear,320,2013-05-16 13:53:00
8:53 AM,59.0,45.0,60,29.76,10.0,Variable,3.5,-,N/A,,Clear,0,2013-05-16 14:53:00
9:53 AM,60.1,46.0,60,29.76,10.0,Calm,Calm,-,N/A,,Clear,0,2013-05-16 15:53:00
10:53 AM,64.9,41.0,42,29.75,10.0,SW,5.8,-,N/A,,Partly Cloudy,230,2013-05-16 16:53:00
11:53 AM,72.0,37.9,29,29.71,10.0,NNW,10.4,17.3,N/A,,Scattered Clouds,340,2013-05-16 17:53:00
12:53 PM,69.8,35.6,28,29.88,10.0,SSW,4.6,-,N/A,,Clear,200,2013-05-16 18:53:00
1:10 PM,60.8,37.4,42,29.88,9.0,West,49.5,59.8,N/A,,Squalls,270,2013-05-16 19:10:00
1:49 PM,55.4,42.8,63,29.89,4.0,WNW,10.4,38.0,0.01,Rain,Light Rain,300,2013-05-16 19:49:00
1:53 PM,55.0,45.0,69,29.77,10.0,Calm,Calm,-,0.01,Rain,Light Rain,0,2013-05-16 19:53:00
2:53 PM,-9999,-9999,N/A,29.87,-9999.0,North,-9999.0,-,0.00,,Unknown,0,2013-05-16 20:53:00
3:53 PM,69.1,41.0,36,29.69,10.0,Variable,6.9,-,N/A,,Unknown,0,2013-05-16 21:53:00
4:53 PM,71.1,42.1,35,29.67,10.0,East,9.2,-,N/A,,Clear,100,2013-05-16 22:53:00
5:53 PM,70.0,39.0,32,29.68,10.0,ESE,10.4,-,N/A,,Clear,120,2013-05-16 23:53:00
6:53 PM,68.0,37.9,33,29.68,10.0,Calm,Calm,-,N/A,,Overcast,0,2013-05-17 00:53:00
7:53 PM,55.9,46.9,72,29.70,10.0,ESE,9.2,-,0.00,Rain,Light Rain,120,2013-05-17 01:53:00
8:53 PM,57.0,48.0,72,29.74,10.0,SW,8.1,-,0.00,,Partly Cloudy,220,2013-05-17 02:53:00
9:53 PM,55.9,46.9,72,29.74,10.0,West,8.1,-,N/A,,Partly Cloudy,280,2013-05-17 03:53:00
10:53 PM,57.0,46.0,67,29.73,10.0,West,5.8,-,N/A,,Overcast,260,2013-05-17 04:53:00
11:53 PM,53.6,46.4,77,29.91,6.0,West,20.7,-,N/A,Rain,Light Rain,270,2013-05-17 05:53:00